sensor_id;sensor_type;location;lat;lon;timestamp;temperature;humidity
11597;DHT22;5854;48.072;16.286;2023-04-01T00:00:47;11.10;52.10
11597;DHT22;5854;48.072;16.286;2023-04-01T00:03:14;11.10;51.60
11597;DHT22;5854;48.072;16.286;2023-04-01T00:05:41;11.10;52.40
11597;DHT22;5854;48.072;16.286;2023-04-01T00:08:09;11.10;51.40
11597;DHT22;5854;48.072;16.286;2023-04-01T00:10:36;11.10;51.00
11597;DHT22;5854;48.072;16.286;2023-04-01T00:13:03;11.00;51.10
11597;DHT22;5854;48.072;16.286;2023-04-01T00:15:31;11.10;51.70
11597;DHT22;5854;48.072;16.286;2023-04-01T00:17:58;11.10;51.70
11597;DHT22;5854;48.072;16.286;2023-04-01T00:20:26;11.00;51.40
11597;DHT22;5854;48.072;16.286;2023-04-01T00:22:54;11.00;52.10
11597;DHT22;5854;48.072;16.286;2023-04-01T00:25:23;11.00;52.50
11597;DHT22;5854;48.072;16.286;2023-04-01T00:27:51;11.00;51.60
11597;DHT22;5854;48.072;16.286;2023-04-01T00:30:18;11.00;51.50
11597;DHT22;5854;48.072;16.286;2023-04-01T00:32:45;11.00;51.20
11597;DHT22;5854;48.072;16.286;2023-04-01T00:35:12;11.00;52.10
11597;DHT22;5854;48.072;16.286;2023-04-01T00:37:39;11.00;52.10
11597;DHT22;5854;48.072;16.286;2023-04-01T00:40:08;11.00;51.20
11597;DHT22;5854;48.072;16.286;2023-04-01T00:42:52;10.90;52.90
11597;DHT22;5854;48.072;16.286;2023-04-01T00:45:30;10.90;51.50
11597;DHT22;5854;48.072;16.286;2023-04-01T00:48:03;10.90;52.40
11597;DHT22;5854;48.072;16.286;2023-04-01T00:50:31;10.90;51.40
11597;DHT22;5854;48.072;16.286;2023-04-01T00:53:01;10.90;52.50
11597;DHT22;5854;48.072;16.286;2023-04-01T00:55:33;10.90;52.80
11597;DHT22;5854;48.072;16.286;2023-04-01T00:58:03;10.80;52.80
11597;DHT22;5854;48.072;16.286;2023-04-01T01:00:32;10.80;51.80
11597;DHT22;5854;48.072;16.286;2023-04-01T01:02:59;10.80;52.80
11597;DHT22;5854;48.072;16.286;2023-04-01T01:05:38;10.90;52.10
11597;DHT22;5854;48.072;16.286;2023-04-01T01:08:19;10.80;52.30
11597;DHT22;5854;48.072;16.286;2023-04-01T01:10:53;10.80;52.70
11597;DHT22;5854;48.072;16.286;2023-04-01T01:13:26;10.80;52.10
11597;DHT22;5854;48.072;16.286;2023-04-01T01:16:02;10.90;51.40
11597;DHT22;5854;48.072;16.286;2023-04-01T01:18:38;10.80;52.20
11597;DHT22;5854;48.072;16.286;2023-04-01T01:21:30;10.80;52.70
11597;DHT22;5854;48.072;16.286;2023-04-01T01:24:13;10.80;52.90
11597;DHT22;5854;48.072;16.286;2023-04-01T01:26:54;10.80;52.70
11597;DHT22;5854;48.072;16.286;2023-04-01T01:30:00;10.80;52.50
11597;DHT22;5854;48.072;16.286;2023-04-01T01:32:50;10.80;52.50
11597;DHT22;5854;48.072;16.286;2023-04-01T01:35:38;10.80;52.60
11597;DHT22;5854;48.072;16.286;2023-04-01T01:38:08;10.70;52.80
11597;DHT22;5854;48.072;16.286;2023-04-01T01:40:40;10.70;52.80
11597;DHT22;5854;48.072;16.286;2023-04-01T01:43:13;10.70;52.80
11597;DHT22;5854;48.072;16.286;2023-04-01T01:45:46;10.70;52.60
11597;DHT22;5854;48.072;16.286;2023-04-01T01:48:17;10.70;52.90
11597;DHT22;5854;48.072;16.286;2023-04-01T01:50:46;10.60;53.20
11597;DHT22;5854;48.072;16.286;2023-04-01T01:53:15;10.60;53.50
11597;DHT22;5854;48.072;16.286;2023-04-01T01:55:45;10.60;53.10
11597;DHT22;5854;48.072;16.286;2023-04-01T01:58:17;10.60;53.30
11597;DHT22;5854;48.072;16.286;2023-04-01T02:00:50;10.60;53.30
11597;DHT22;5854;48.072;16.286;2023-04-01T02:03:20;10.60;53.30
11597;DHT22;5854;48.072;16.286;2023-04-01T02:05:51;10.60;53.30
11597;DHT22;5854;48.072;16.286;2023-04-01T02:08:22;10.60;53.60
11597;DHT22;5854;48.072;16.286;2023-04-01T02:10:56;10.50;53.80
11597;DHT22;5854;48.072;16.286;2023-04-01T02:13:29;10.50;53.80
11597;DHT22;5854;48.072;16.286;2023-04-01T02:16:03;10.50;53.40
11597;DHT22;5854;48.072;16.286;2023-04-01T02:18:35;10.50;53.50
11597;DHT22;5854;48.072;16.286;2023-04-01T02:21:05;10.50;53.30
11597;DHT22;5854;48.072;16.286;2023-04-01T02:23:35;10.50;53.40
11597;DHT22;5854;48.072;16.286;2023-04-01T02:26:04;10.50;53.80
11597;DHT22;5854;48.072;16.286;2023-04-01T02:28:33;10.50;53.60
11597;DHT22;5854;48.072;16.286;2023-04-01T02:31:02;10.50;53.30
11597;DHT22;5854;48.072;16.286;2023-04-01T02:33:30;10.50;53.50
11597;DHT22;5854;48.072;16.286;2023-04-01T02:35:59;10.50;53.30
11597;DHT22;5854;48.072;16.286;2023-04-01T02:38:27;10.50;53.60
11597;DHT22;5854;48.072;16.286;2023-04-01T02:40:59;10.40;53.60
11597;DHT22;5854;48.072;16.286;2023-04-01T02:43:27;10.40;53.30
11597;DHT22;5854;48.072;16.286;2023-04-01T02:45:54;10.40;53.60
11597;DHT22;5854;48.072;16.286;2023-04-01T02:48:21;10.40;53.50
11597;DHT22;5854;48.072;16.286;2023-04-01T02:50:50;10.40;53.80
11597;DHT22;5854;48.072;16.286;2023-04-01T02:53:17;10.40;54.00
11597;DHT22;5854;48.072;16.286;2023-04-01T02:55:46;10.40;54.20
11597;DHT22;5854;48.072;16.286;2023-04-01T02:58:16;10.30;54.30
11597;DHT22;5854;48.072;16.286;2023-04-01T03:00:43;10.30;54.50
11597;DHT22;5854;48.072;16.286;2023-04-01T03:03:10;10.30;54.70
11597;DHT22;5854;48.072;16.286;2023-04-01T03:05:38;10.30;54.80
11597;DHT22;5854;48.072;16.286;2023-04-01T03:08:06;10.20;55.70
11597;DHT22;5854;48.072;16.286;2023-04-01T03:10:33;10.10;55.50
11597;DHT22;5854;48.072;16.286;2023-04-01T03:13:01;10.10;55.50
11597;DHT22;5854;48.072;16.286;2023-04-01T03:15:28;10.10;55.50
11597;DHT22;5854;48.072;16.286;2023-04-01T03:17:55;10.10;55.80
11597;DHT22;5854;48.072;16.286;2023-04-01T03:20:22;10.10;55.60
11597;DHT22;5854;48.072;16.286;2023-04-01T03:22:49;10.10;55.90
11597;DHT22;5854;48.072;16.286;2023-04-01T03:25:18;10.10;55.60
11597;DHT22;5854;48.072;16.286;2023-04-01T03:27:45;10.10;55.60
11597;DHT22;5854;48.072;16.286;2023-04-01T03:30:13;10.00;55.50
11597;DHT22;5854;48.072;16.286;2023-04-01T03:32:40;10.00;55.50
11597;DHT22;5854;48.072;16.286;2023-04-01T03:35:08;10.00;55.50
11597;DHT22;5854;48.072;16.286;2023-04-01T03:37:35;10.10;55.50
11597;DHT22;5854;48.072;16.286;2023-04-01T03:40:03;10.00;55.40
11597;DHT22;5854;48.072;16.286;2023-04-01T03:42:31;10.00;55.30
11597;DHT22;5854;48.072;16.286;2023-04-01T03:44:58;10.00;55.30
11597;DHT22;5854;48.072;16.286;2023-04-01T03:47:27;10.00;55.20
11597;DHT22;5854;48.072;16.286;2023-04-01T03:49:54;10.10;55.20
11597;DHT22;5854;48.072;16.286;2023-04-01T03:52:21;10.10;55.80
11597;DHT22;5854;48.072;16.286;2023-04-01T03:54:48;10.10;55.10
11597;DHT22;5854;48.072;16.286;2023-04-01T03:57:15;10.00;55.10
11597;DHT22;5854;48.072;16.286;2023-04-01T03:59:42;10.00;55.00
11597;DHT22;5854;48.072;16.286;2023-04-01T04:02:09;10.10;54.90
11597;DHT22;5854;48.072;16.286;2023-04-01T04:04:37;10.10;54.50
11597;DHT22;5854;48.072;16.286;2023-04-01T04:07:05;10.10;54.90
11597;DHT22;5854;48.072;16.286;2023-04-01T04:09:32;10.10;54.80
11597;DHT22;5854;48.072;16.286;2023-04-01T04:12:00;10.10;54.70
11597;DHT22;5854;48.072;16.286;2023-04-01T04:14:27;10.10;54.80
11597;DHT22;5854;48.072;16.286;2023-04-01T04:16:54;10.00;54.70
11597;DHT22;5854;48.072;16.286;2023-04-01T04:19:21;10.00;54.90
11597;DHT22;5854;48.072;16.286;2023-04-01T04:21:49;10.00;54.80
11597;DHT22;5854;48.072;16.286;2023-04-01T04:24:16;10.00;54.80
11597;DHT22;5854;48.072;16.286;2023-04-01T04:26:43;10.00;54.70
11597;DHT22;5854;48.072;16.286;2023-04-01T04:29:10;10.10;54.80
11597;DHT22;5854;48.072;16.286;2023-04-01T04:31:37;10.00;54.70
11597;DHT22;5854;48.072;16.286;2023-04-01T04:34:04;10.00;54.60
11597;DHT22;5854;48.072;16.286;2023-04-01T04:36:31;10.00;54.80
11597;DHT22;5854;48.072;16.286;2023-04-01T04:39:00;10.00;54.70
11597;DHT22;5854;48.072;16.286;2023-04-01T04:41:28;10.10;54.80
11597;DHT22;5854;48.072;16.286;2023-04-01T04:43:56;10.00;54.60
11597;DHT22;5854;48.072;16.286;2023-04-01T04:46:24;10.00;54.70
11597;DHT22;5854;48.072;16.286;2023-04-01T04:48:52;10.00;54.80
11597;DHT22;5854;48.072;16.286;2023-04-01T04:51:19;10.00;55.00
11597;DHT22;5854;48.072;16.286;2023-04-01T04:53:47;10.00;54.90
11597;DHT22;5854;48.072;16.286;2023-04-01T04:56:19;10.00;54.90
11597;DHT22;5854;48.072;16.286;2023-04-01T04:58:47;10.00;55.40
11597;DHT22;5854;48.072;16.286;2023-04-01T05:01:15;10.00;55.30
11597;DHT22;5854;48.072;16.286;2023-04-01T05:03:43;10.00;55.00
11597;DHT22;5854;48.072;16.286;2023-04-01T05:06:12;10.00;55.00
11597;DHT22;5854;48.072;16.286;2023-04-01T05:08:40;10.00;54.90
11597;DHT22;5854;48.072;16.286;2023-04-01T05:11:11;10.00;54.80
11597;DHT22;5854;48.072;16.286;2023-04-01T05:13:41;10.00;54.90
11597;DHT22;5854;48.072;16.286;2023-04-01T05:16:08;10.00;54.90
11597;DHT22;5854;48.072;16.286;2023-04-01T05:18:36;10.00;55.20
11597;DHT22;5854;48.072;16.286;2023-04-01T05:21:03;10.00;54.80
11597;DHT22;5854;48.072;16.286;2023-04-01T05:23:31;10.00;55.00
11597;DHT22;5854;48.072;16.286;2023-04-01T05:25:59;10.10;54.70
11597;DHT22;5854;48.072;16.286;2023-04-01T05:28:30;10.10;54.70
11597;DHT22;5854;48.072;16.286;2023-04-01T05:31:00;10.20;54.70
11597;DHT22;5854;48.072;16.286;2023-04-01T05:33:28;10.30;54.20
11597;DHT22;5854;48.072;16.286;2023-04-01T05:35:56;10.30;54.90
11597;DHT22;5854;48.072;16.286;2023-04-01T05:38:25;10.30;54.90
11597;DHT22;5854;48.072;16.286;2023-04-01T05:40:58;10.30;55.30
11597;DHT22;5854;48.072;16.286;2023-04-01T05:43:26;10.40;55.00
11597;DHT22;5854;48.072;16.286;2023-04-01T05:45:53;10.60;54.00
11597;DHT22;5854;48.072;16.286;2023-04-01T05:48:21;10.70;53.70
11597;DHT22;5854;48.072;16.286;2023-04-01T05:50:49;10.90;52.80
11597;DHT22;5854;48.072;16.286;2023-04-01T05:53:16;10.90;53.00
11597;DHT22;5854;48.072;16.286;2023-04-01T05:55:43;10.80;52.30
11597;DHT22;5854;48.072;16.286;2023-04-01T05:58:10;10.90;53.20
11597;DHT22;5854;48.072;16.286;2023-04-01T06:00:37;10.90;52.80
11597;DHT22;5854;48.072;16.286;2023-04-01T06:03:05;11.00;52.00
11597;DHT22;5854;48.072;16.286;2023-04-01T06:05:39;11.00;51.90
11597;DHT22;5854;48.072;16.286;2023-04-01T06:08:10;11.00;51.50
11597;DHT22;5854;48.072;16.286;2023-04-01T06:10:53;11.40;51.10
11597;DHT22;5854;48.072;16.286;2023-04-01T06:13:37;11.90;50.20
11597;DHT22;5854;48.072;16.286;2023-04-01T06:16:21;11.90;49.40
11597;DHT22;5854;48.072;16.286;2023-04-01T06:19:03;12.20;49.10
11597;DHT22;5854;48.072;16.286;2023-04-01T06:21:58;12.30;48.60
11597;DHT22;5854;48.072;16.286;2023-04-01T06:24:55;12.30;48.50
11597;DHT22;5854;48.072;16.286;2023-04-01T06:27:55;12.40;47.80
11597;DHT22;5854;48.072;16.286;2023-04-01T06:30:40;12.20;48.60
11597;DHT22;5854;48.072;16.286;2023-04-01T06:33:25;12.30;47.60
11597;DHT22;5854;48.072;16.286;2023-04-01T06:36:15;12.00;49.00
11597;DHT22;5854;48.072;16.286;2023-04-01T06:42:14;11.70;51.60
11597;DHT22;5854;48.072;16.286;2023-04-01T06:44:59;11.90;50.00
11597;DHT22;5854;48.072;16.286;2023-04-01T06:47:40;11.60;51.50
11597;DHT22;5854;48.072;16.286;2023-04-01T06:50:21;11.70;50.80
11597;DHT22;5854;48.072;16.286;2023-04-01T06:52:56;11.90;50.40
11597;DHT22;5854;48.072;16.286;2023-04-01T06:55:34;11.80;50.20
11597;DHT22;5854;48.072;16.286;2023-04-01T06:58:05;11.70;51.10
11597;DHT22;5854;48.072;16.286;2023-04-01T07:00:39;11.80;50.60
11597;DHT22;5854;48.072;16.286;2023-04-01T07:03:15;12.10;49.70
11597;DHT22;5854;48.072;16.286;2023-04-01T07:05:46;12.10;49.00
11597;DHT22;5854;48.072;16.286;2023-04-01T07:08:16;12.00;49.20
11597;DHT22;5854;48.072;16.286;2023-04-01T07:10:50;12.20;48.70
11597;DHT22;5854;48.072;16.286;2023-04-01T07:13:23;12.60;48.10
11597;DHT22;5854;48.072;16.286;2023-04-01T07:15:59;13.10;46.50
11597;DHT22;5854;48.072;16.286;2023-04-01T07:18:37;13.00;46.50
11597;DHT22;5854;48.072;16.286;2023-04-01T07:21:15;13.50;45.60
11597;DHT22;5854;48.072;16.286;2023-04-01T07:23:50;14.30;44.30
11597;DHT22;5854;48.072;16.286;2023-04-01T07:26:23;15.00;41.70
11597;DHT22;5854;48.072;16.286;2023-04-01T07:28:53;15.70;40.30
11597;DHT22;5854;48.072;16.286;2023-04-01T07:31:29;15.50;40.90
11597;DHT22;5854;48.072;16.286;2023-04-01T07:34:10;15.60;40.10
11597;DHT22;5854;48.072;16.286;2023-04-01T07:36:43;15.20;40.70
11597;DHT22;5854;48.072;16.286;2023-04-01T07:39:23;15.10;40.60
11597;DHT22;5854;48.072;16.286;2023-04-01T07:42:02;15.30;40.90
11597;DHT22;5854;48.072;16.286;2023-04-01T07:44:41;15.70;40.00
11597;DHT22;5854;48.072;16.286;2023-04-01T07:47:25;15.60;40.00
11597;DHT22;5854;48.072;16.286;2023-04-01T07:50:10;16.40;38.80
11597;DHT22;5854;48.072;16.286;2023-04-01T07:52:44;16.80;38.10
11597;DHT22;5854;48.072;16.286;2023-04-01T07:55:21;16.50;37.90
11597;DHT22;5854;48.072;16.286;2023-04-01T07:57:57;16.00;39.20
11597;DHT22;5854;48.072;16.286;2023-04-01T08:00:30;15.80;38.70
11597;DHT22;5854;48.072;16.286;2023-04-01T08:03:15;14.80;39.90
11597;DHT22;5854;48.072;16.286;2023-04-01T08:05:56;13.90;42.90
11597;DHT22;5854;48.072;16.286;2023-04-01T08:08:27;13.40;44.10
11597;DHT22;5854;48.072;16.286;2023-04-01T08:11:07;13.00;44.60
11597;DHT22;5854;48.072;16.286;2023-04-01T08:13:45;12.80;46.00
11597;DHT22;5854;48.072;16.286;2023-04-01T08:16:23;13.00;46.50
11597;DHT22;5854;48.072;16.286;2023-04-01T08:19:03;13.00;45.80
11597;DHT22;5854;48.072;16.286;2023-04-01T08:21:42;13.30;45.80
11597;DHT22;5854;48.072;16.286;2023-04-01T08:24:22;13.30;45.90
11597;DHT22;5854;48.072;16.286;2023-04-01T08:26:55;13.40;44.80
11597;DHT22;5854;48.072;16.286;2023-04-01T08:29:31;13.20;45.10
11597;DHT22;5854;48.072;16.286;2023-04-01T08:32:06;12.90;46.10
11597;DHT22;5854;48.072;16.286;2023-04-01T08:34:38;12.50;46.90
11597;DHT22;5854;48.072;16.286;2023-04-01T08:37:11;12.50;47.10
11597;DHT22;5854;48.072;16.286;2023-04-01T08:39:44;12.50;47.20
11597;DHT22;5854;48.072;16.286;2023-04-01T08:42:50;12.60;47.10
11597;DHT22;5854;48.072;16.286;2023-04-01T08:45:36;12.70;46.40
11597;DHT22;5854;48.072;16.286;2023-04-01T08:48:47;12.90;46.40
11597;DHT22;5854;48.072;16.286;2023-04-01T08:51:40;12.80;45.70
11597;DHT22;5854;48.072;16.286;2023-04-01T08:54:34;12.70;47.10
11597;DHT22;5854;48.072;16.286;2023-04-01T08:57:20;12.50;46.80
11597;DHT22;5854;48.072;16.286;2023-04-01T09:00:08;12.70;47.30
11597;DHT22;5854;48.072;16.286;2023-04-01T09:03:10;12.70;46.70
11597;DHT22;5854;48.072;16.286;2023-04-01T09:06:12;13.10;45.70
11597;DHT22;5854;48.072;16.286;2023-04-01T09:12:39;13.20;45.60
11597;DHT22;5854;48.072;16.286;2023-04-01T09:15:35;13.30;45.30
11597;DHT22;5854;48.072;16.286;2023-04-01T09:21:35;13.00;45.20
11597;DHT22;5854;48.072;16.286;2023-04-01T09:24:35;12.80;46.80
11597;DHT22;5854;48.072;16.286;2023-04-01T09:27:19;13.10;46.60
11597;DHT22;5854;48.072;16.286;2023-04-01T09:30:37;12.90;46.80
11597;DHT22;5854;48.072;16.286;2023-04-01T09:36:34;13.20;45.00
11597;DHT22;5854;48.072;16.286;2023-04-01T09:39:18;13.10;46.50
11597;DHT22;5854;48.072;16.286;2023-04-01T09:42:15;13.20;45.80
11597;DHT22;5854;48.072;16.286;2023-04-01T09:44:57;13.50;45.40
11597;DHT22;5854;48.072;16.286;2023-04-01T09:47:39;13.50;45.00
11597;DHT22;5854;48.072;16.286;2023-04-01T09:50:27;13.30;45.10
11597;DHT22;5854;48.072;16.286;2023-04-01T09:53:08;13.40;44.70
11597;DHT22;5854;48.072;16.286;2023-04-01T09:56:12;13.30;45.00
11597;DHT22;5854;48.072;16.286;2023-04-01T10:02:49;13.00;44.20
11597;DHT22;5854;48.072;16.286;2023-04-01T10:06:11;13.00;45.20
11597;DHT22;5854;48.072;16.286;2023-04-01T10:09:26;13.00;46.30
11597;DHT22;5854;48.072;16.286;2023-04-01T10:12:57;13.40;43.20
11597;DHT22;5854;48.072;16.286;2023-04-01T10:19:12;14.00;42.60
11597;DHT22;5854;48.072;16.286;2023-04-01T10:22:11;14.10;43.70
11597;DHT22;5854;48.072;16.286;2023-04-01T10:31:34;13.80;45.20
11597;DHT22;5854;48.072;16.286;2023-04-01T10:38:05;14.00;43.50
11597;DHT22;5854;48.072;16.286;2023-04-01T10:41:31;13.90;43.80
11597;DHT22;5854;48.072;16.286;2023-04-01T10:44:18;13.90;43.90
11597;DHT22;5854;48.072;16.286;2023-04-01T10:47:34;13.80;44.40
11597;DHT22;5854;48.072;16.286;2023-04-01T10:50:31;13.90;45.40
11597;DHT22;5854;48.072;16.286;2023-04-01T10:53:46;13.70;44.90
11597;DHT22;5854;48.072;16.286;2023-04-01T10:56:33;13.80;45.00
11597;DHT22;5854;48.072;16.286;2023-04-01T11:03:01;14.00;43.80
11597;DHT22;5854;48.072;16.286;2023-04-01T11:09:33;14.50;41.40
11597;DHT22;5854;48.072;16.286;2023-04-01T11:12:31;14.50;40.90
11597;DHT22;5854;48.072;16.286;2023-04-01T11:15:36;14.50;41.50
11597;DHT22;5854;48.072;16.286;2023-04-01T11:21:59;14.70;38.50
11597;DHT22;5854;48.072;16.286;2023-04-01T11:25:11;14.60;39.20
11597;DHT22;5854;48.072;16.286;2023-04-01T11:28:05;14.80;39.20
11597;DHT22;5854;48.072;16.286;2023-04-01T11:30:53;14.80;39.80
11597;DHT22;5854;48.072;16.286;2023-04-01T11:33:36;14.50;39.20
11597;DHT22;5854;48.072;16.286;2023-04-01T11:36:25;14.40;39.50
11597;DHT22;5854;48.072;16.286;2023-04-01T11:39:11;14.30;39.80
11597;DHT22;5854;48.072;16.286;2023-04-01T11:41:51;14.30;39.60
11597;DHT22;5854;48.072;16.286;2023-04-01T11:44:26;14.50;39.90
11597;DHT22;5854;48.072;16.286;2023-04-01T11:47:10;14.70;39.50
11597;DHT22;5854;48.072;16.286;2023-04-01T11:49:56;15.00;38.20
11597;DHT22;5854;48.072;16.286;2023-04-01T11:52:54;15.30;37.50
11597;DHT22;5854;48.072;16.286;2023-04-01T11:55:35;15.30;37.40
11597;DHT22;5854;48.072;16.286;2023-04-01T12:01:43;14.90;39.20
11597;DHT22;5854;48.072;16.286;2023-04-01T12:04:29;14.70;38.70
11597;DHT22;5854;48.072;16.286;2023-04-01T12:07:17;14.60;38.70
11597;DHT22;5854;48.072;16.286;2023-04-01T12:09:55;14.60;40.10
11597;DHT22;5854;48.072;16.286;2023-04-01T12:12:35;14.60;40.20
11597;DHT22;5854;48.072;16.286;2023-04-01T12:15:16;14.40;39.60
11597;DHT22;5854;48.072;16.286;2023-04-01T12:17:52;14.30;41.10
11597;DHT22;5854;48.072;16.286;2023-04-01T12:20:29;14.50;38.80
11597;DHT22;5854;48.072;16.286;2023-04-01T12:23:13;14.60;40.80
11597;DHT22;5854;48.072;16.286;2023-04-01T12:29:21;14.60;38.50
11597;DHT22;5854;48.072;16.286;2023-04-01T12:32:12;14.80;40.30
11597;DHT22;5854;48.072;16.286;2023-04-01T12:37:58;14.70;38.00
11597;DHT22;5854;48.072;16.286;2023-04-01T12:41:07;14.60;38.50
11597;DHT22;5854;48.072;16.286;2023-04-01T12:44:02;14.50;38.50
11597;DHT22;5854;48.072;16.286;2023-04-01T12:47:16;14.60;39.10
11597;DHT22;5854;48.072;16.286;2023-04-01T12:50:16;14.70;39.90
11597;DHT22;5854;48.072;16.286;2023-04-01T12:53:01;14.80;38.40
11597;DHT22;5854;48.072;16.286;2023-04-01T12:55:40;15.10;38.60
11597;DHT22;5854;48.072;16.286;2023-04-01T13:01:59;14.90;39.50
11597;DHT22;5854;48.072;16.286;2023-04-01T13:04:53;15.00;38.60
11597;DHT22;5854;48.072;16.286;2023-04-01T13:10:33;14.90;39.70
11597;DHT22;5854;48.072;16.286;2023-04-01T13:16:34;14.50;37.90
11597;DHT22;5854;48.072;16.286;2023-04-01T13:19:07;14.40;37.80
11597;DHT22;5854;48.072;16.286;2023-04-01T13:21:44;14.50;38.70
11597;DHT22;5854;48.072;16.286;2023-04-01T13:24:30;14.70;38.50
11597;DHT22;5854;48.072;16.286;2023-04-01T13:27:11;14.70;38.10
11597;DHT22;5854;48.072;16.286;2023-04-01T13:29:57;14.80;37.90
11597;DHT22;5854;48.072;16.286;2023-04-01T13:32:34;14.80;37.30
11597;DHT22;5854;48.072;16.286;2023-04-01T13:35:15;15.00;37.70
11597;DHT22;5854;48.072;16.286;2023-04-01T13:37:58;15.10;36.70
11597;DHT22;5854;48.072;16.286;2023-04-01T13:40:51;15.20;36.50
11597;DHT22;5854;48.072;16.286;2023-04-01T13:43:24;15.20;36.10
11597;DHT22;5854;48.072;16.286;2023-04-01T13:46:11;15.20;36.30
11597;DHT22;5854;48.072;16.286;2023-04-01T13:49:03;15.10;35.30
11597;DHT22;5854;48.072;16.286;2023-04-01T13:52:12;15.20;35.60
11597;DHT22;5854;48.072;16.286;2023-04-01T13:58:22;14.90;35.20
11597;DHT22;5854;48.072;16.286;2023-04-01T14:01:04;14.90;34.80
11597;DHT22;5854;48.072;16.286;2023-04-01T14:04:02;15.00;33.90
11597;DHT22;5854;48.072;16.286;2023-04-01T14:06:47;15.20;35.30
11597;DHT22;5854;48.072;16.286;2023-04-01T14:09:39;15.40;34.20
11597;DHT22;5854;48.072;16.286;2023-04-01T14:12:30;15.60;33.40
11597;DHT22;5854;48.072;16.286;2023-04-01T14:15:25;15.50;34.00
11597;DHT22;5854;48.072;16.286;2023-04-01T14:18:13;15.60;33.70
11597;DHT22;5854;48.072;16.286;2023-04-01T14:20:53;15.60;33.90
11597;DHT22;5854;48.072;16.286;2023-04-01T14:27:13;15.80;33.50
11597;DHT22;5854;48.072;16.286;2023-04-01T14:30:16;15.70;33.30
11597;DHT22;5854;48.072;16.286;2023-04-01T14:33:00;15.60;33.60
11597;DHT22;5854;48.072;16.286;2023-04-01T14:35:38;15.50;34.00
11597;DHT22;5854;48.072;16.286;2023-04-01T14:38:27;15.40;33.80
11597;DHT22;5854;48.072;16.286;2023-04-01T14:41:11;15.30;34.00
11597;DHT22;5854;48.072;16.286;2023-04-01T14:44:05;15.20;34.20
11597;DHT22;5854;48.072;16.286;2023-04-01T14:49:53;15.20;34.10
11597;DHT22;5854;48.072;16.286;2023-04-01T14:52:32;15.20;33.80
11597;DHT22;5854;48.072;16.286;2023-04-01T14:55:01;15.10;34.20
11597;DHT22;5854;48.072;16.286;2023-04-01T14:57:58;15.10;34.60
11597;DHT22;5854;48.072;16.286;2023-04-01T15:00:27;15.10;34.80
11597;DHT22;5854;48.072;16.286;2023-04-01T15:03:20;15.00;34.80
11597;DHT22;5854;48.072;16.286;2023-04-01T15:05:54;15.10;35.10
11597;DHT22;5854;48.072;16.286;2023-04-01T15:08:25;15.10;35.00
11597;DHT22;5854;48.072;16.286;2023-04-01T15:11:05;15.00;35.20
11597;DHT22;5854;48.072;16.286;2023-04-01T15:13:58;15.00;35.20
11597;DHT22;5854;48.072;16.286;2023-04-01T15:16:41;14.90;35.20
11597;DHT22;5854;48.072;16.286;2023-04-01T15:19:24;14.90;35.30
11597;DHT22;5854;48.072;16.286;2023-04-01T15:22:12;14.80;36.30
11597;DHT22;5854;48.072;16.286;2023-04-01T15:24:52;14.90;37.00
11597;DHT22;5854;48.072;16.286;2023-04-01T15:27:34;14.90;37.30
11597;DHT22;5854;48.072;16.286;2023-04-01T15:30:21;14.90;37.70
11597;DHT22;5854;48.072;16.286;2023-04-01T15:33:14;14.90;38.30
11597;DHT22;5854;48.072;16.286;2023-04-01T15:35:58;14.90;38.10
11597;DHT22;5854;48.072;16.286;2023-04-01T15:38:36;14.80;38.90
11597;DHT22;5854;48.072;16.286;2023-04-01T15:41:13;14.80;38.70
11597;DHT22;5854;48.072;16.286;2023-04-01T15:43:43;14.80;38.60
11597;DHT22;5854;48.072;16.286;2023-04-01T15:46:43;14.70;39.00
11597;DHT22;5854;48.072;16.286;2023-04-01T15:49:18;14.70;39.20
11597;DHT22;5854;48.072;16.286;2023-04-01T15:52:12;14.70;39.30
11597;DHT22;5854;48.072;16.286;2023-04-01T15:55:09;14.60;39.30
11597;DHT22;5854;48.072;16.286;2023-04-01T15:57:59;14.60;39.70
11597;DHT22;5854;48.072;16.286;2023-04-01T16:00:41;14.50;40.00
11597;DHT22;5854;48.072;16.286;2023-04-01T16:03:27;14.50;40.10
11597;DHT22;5854;48.072;16.286;2023-04-01T16:09:16;14.60;40.00
11597;DHT22;5854;48.072;16.286;2023-04-01T16:11:53;14.60;40.20
11597;DHT22;5854;48.072;16.286;2023-04-01T16:14:33;14.70;39.70
11597;DHT22;5854;48.072;16.286;2023-04-01T16:17:26;14.60;39.90
11597;DHT22;5854;48.072;16.286;2023-04-01T16:20:13;14.60;40.20
11597;DHT22;5854;48.072;16.286;2023-04-01T16:22:49;14.60;40.20
11597;DHT22;5854;48.072;16.286;2023-04-01T16:25:32;14.50;40.60
11597;DHT22;5854;48.072;16.286;2023-04-01T16:28:16;14.40;40.60
11597;DHT22;5854;48.072;16.286;2023-04-01T16:30:56;14.50;41.00
11597;DHT22;5854;48.072;16.286;2023-04-01T16:33:35;14.40;41.20
11597;DHT22;5854;48.072;16.286;2023-04-01T16:36:12;14.40;41.50
11597;DHT22;5854;48.072;16.286;2023-04-01T16:38:51;14.30;41.80
11597;DHT22;5854;48.072;16.286;2023-04-01T16:41:37;14.20;42.30
11597;DHT22;5854;48.072;16.286;2023-04-01T16:44:17;14.10;43.00
11597;DHT22;5854;48.072;16.286;2023-04-01T16:46:47;14.00;42.80
11597;DHT22;5854;48.072;16.286;2023-04-01T16:49:24;14.00;43.20
11597;DHT22;5854;48.072;16.286;2023-04-01T16:52:00;13.90;43.30
11597;DHT22;5854;48.072;16.286;2023-04-01T16:54:39;13.80;43.90
11597;DHT22;5854;48.072;16.286;2023-04-01T16:57:20;13.60;44.10
11597;DHT22;5854;48.072;16.286;2023-04-01T16:59:55;13.60;44.40
11597;DHT22;5854;48.072;16.286;2023-04-01T17:02:30;13.30;45.60
11597;DHT22;5854;48.072;16.286;2023-04-01T17:05:01;13.30;45.50
11597;DHT22;5854;48.072;16.286;2023-04-01T17:07:43;13.30;45.90
11597;DHT22;5854;48.072;16.286;2023-04-01T17:10:28;13.50;45.10
11597;DHT22;5854;48.072;16.286;2023-04-01T17:13:19;13.30;45.30
11597;DHT22;5854;48.072;16.286;2023-04-01T17:16:01;13.20;46.00
11597;DHT22;5854;48.072;16.286;2023-04-01T17:18:37;13.20;46.10
11597;DHT22;5854;48.072;16.286;2023-04-01T17:21:16;13.10;46.30
11597;DHT22;5854;48.072;16.286;2023-04-01T17:23:50;13.10;46.50
11597;DHT22;5854;48.072;16.286;2023-04-01T17:26:26;13.00;46.50
11597;DHT22;5854;48.072;16.286;2023-04-01T17:29:05;12.90;47.10
11597;DHT22;5854;48.072;16.286;2023-04-01T17:31:48;12.90;47.10
11597;DHT22;5854;48.072;16.286;2023-04-01T17:34:30;12.80;47.70
11597;DHT22;5854;48.072;16.286;2023-04-01T17:37:22;13.00;47.10
11597;DHT22;5854;48.072;16.286;2023-04-01T17:40:11;13.00;47.20
11597;DHT22;5854;48.072;16.286;2023-04-01T17:42:55;12.90;47.70
11597;DHT22;5854;48.072;16.286;2023-04-01T17:45:33;12.90;47.70
11597;DHT22;5854;48.072;16.286;2023-04-01T17:48:16;12.90;47.70
11597;DHT22;5854;48.072;16.286;2023-04-01T17:56:18;12.60;48.90
11597;DHT22;5854;48.072;16.286;2023-04-01T17:59:44;12.70;48.50
11597;DHT22;5854;48.072;16.286;2023-04-01T18:03:12;12.50;48.90
11597;DHT22;5854;48.072;16.286;2023-04-01T18:05:56;12.30;49.80